Terminal Aerodrome Forecast
Issued by NWS

Home | Current Version | Previous Version | Text Only | Print | Product List | Glossary On
Versions: 1 2 3 4 5 6 7 8 9 10 11 12 13 14 15 16
000
FTUS46 KEKA 302334
TAFUKI
TAF
KUKI 302334Z 3100/3124 14006KT P6SM VCSH SCT030 SCT150 BKN250
     FM310600 VRB03KT P6SM SCT250
     FM311800 10005KT P6SM SCT050 SCT250=

USA.gov is the U.S. government's official web portal to all federal, state and local government web resources and services.